< < Back
Terminal Aerodrome Forecast


Current Version              Previous Versions:   1  2  3  4  5  6  7  8  9  

Terminal Aerodrome Forecast

932
FTUS42 KFFC 260536
TAFCSG
TAF
KCSG 260536Z 2606/2706 35003KT P6SM SCT070 BKN250
     FM261200 06006KT P6SM SCT015
     FM261400 10009KT P6SM BKN035
     FM261700 13010KT P6SM SCT050 BKN120 PROB30 2619/2701 5SM -TSRA
      BKN035CB
     FM270200 11004KT P6SM SCT070 BKN250=



Latest METAR

679
SAUS70 KWBC 261700
MTRCSG
METAR KCSG 261651Z VRB03KT 10SM CLR 31/22 A3013 RMK AO2 LTG DSNT NE AND
E SLP198 T03060217


USA.gov is the U.S. government's official web portal to all federal, state and local government web resources and services.